Time;durP1;ratioP1;P1;durP2;ratioP2;P2;SDS_P1;SDS_P2;PMS_P1;PMS_P2;Temp;Humidity;BMP_temperature;BMP_pressure;BME280_temperature;BME280_humidity;BME280_pressure;Samples;Min_cycle;Max_cycle;Signal;HPM_P1;HPM_P2
2022/03/20 00:01:28;;;;;;;;;;;;;;;5.80;26.83;102204.31;4419639;32;33827;-80
2022/03/20 00:03:56;;;;;;;;;;;;;;;5.78;26.76;102210.56;4404818;32;33591;-80
2022/03/20 00:06:23;;;;;;;;;;;;;;;5.66;27.33;102217.13;4387502;32;34639;-81
2022/03/20 00:08:52;;;;;;;;;;;;;;;5.54;27.29;102203.50;4407981;32;33984;-80
2022/03/20 00:11:19;;;;;;;;;;;;;;;5.38;27.72;102204.09;4420615;32;33591;-81
2022/03/20 00:13:47;;;;;;;;;;;;;;;5.79;26.64;102207.03;4417139;32;33946;-81
2022/03/20 00:16:14;;;;;;;;;;;;;;;5.61;27.44;102208.50;4412906;32;34419;-81
2022/03/20 00:18:42;;;;;;;;;;;;;;;5.78;26.86;102200.84;4406267;32;34096;-81
2022/03/20 00:21:10;;;;;;;;;;;;;;;5.59;26.98;102202.44;4415269;32;31513;-81
2022/03/20 00:23:37;;;;;;;;;;;;;;;5.29;27.81;102200.00;4410796;32;33667;-80
2022/03/20 00:26:06;;;;;;;;;;;;;;;5.53;27.15;102201.78;4396021;32;34550;-80
2022/03/20 00:28:33;;;;;;;;;;;;;;;5.49;27.33;102195.75;4419509;32;34686;-80
2022/03/20 00:31:00;;;;;;;;;;;;;;;5.42;27.57;102197.78;4405091;32;32968;-81
2022/03/20 00:33:28;;;;;;;;;;;;;;;5.26;28.17;102194.84;4406287;32;33864;-81
2022/03/20 00:35:55;;;;;;;;;;;;;;;5.37;27.67;102191.84;4393843;32;33446;-82
2022/03/20 00:38:24;;;;;;;;;;;;;;;5.33;27.30;102191.06;4396393;32;34450;-83
2022/03/20 00:40:51;;;;;;;;;;;;;;;5.02;27.68;102194.81;4389802;32;32993;-82
2022/03/20 00:43:19;;;;;;;;;;;;;;;4.83;28.33;102197.19;4412208;32;33526;-80
2022/03/20 00:45:46;;;;;;;;;;;;;;;5.19;27.60;102192.47;4402857;32;34802;-82
2022/03/20 00:48:13;;;;;;;;;;;;;;;5.09;27.76;102193.69;4411162;32;34198;-81
2022/03/20 00:50:41;;;;;;;;;;;;;;;4.97;28.07;102196.72;4406081;32;33149;-81
2022/03/20 00:53:09;;;;;;;;;;;;;;;5.04;28.14;102203.53;4406608;32;33955;-79
2022/03/20 00:55:37;;;;;;;;;;;;;;;4.60;28.90;102193.56;4396913;32;33221;-82
2022/03/20 00:58:04;;;;;;;;;;;;;;;4.98;28.31;102201.12;4391932;32;34116;-82
2022/03/20 01:00:32;;;;;;;;;;;;;;;5.06;28.40;102191.12;4415475;32;34058;-81
2022/03/20 01:03:01;;;;;;;;;;;;;;;4.80;28.98;102194.66;4407586;32;34217;-81
2022/03/20 01:05:29;;;;;;;;;;;;;;;4.71;29.13;102194.94;4414180;32;35556;-80
2022/03/20 01:07:59;;;;;;;;;;;;;;;4.90;28.78;102192.59;4406722;32;35181;-81
2022/03/20 01:10:27;;;;;;;;;;;;;;;5.09;28.46;102194.53;4419934;32;33546;-79
2022/03/20 01:12:56;;;;;;;;;;;;;;;4.92;28.54;102182.84;4407856;32;33795;-81
2022/03/20 01:15:23;;;;;;;;;;;;;;;4.64;29.26;102189.94;4421905;32;35052;-82
2022/03/20 01:17:51;;;;;;;;;;;;;;;4.73;29.25;102185.22;4419068;32;34166;-82
2022/03/20 01:20:21;;;;;;;;;;;;;;;4.72;29.37;102186.13;4416188;32;34350;-82
2022/03/20 01:22:50;;;;;;;;;;;;;;;4.70;29.56;102190.59;4424148;32;34232;-82
2022/03/20 01:25:19;;;;;;;;;;;;;;;4.60;29.69;102185.66;4423373;32;35577;-82
2022/03/20 01:27:47;;;;;;;;;;;;;;;4.57;29.72;102194.53;4414667;32;35483;-81
2022/03/20 01:30:14;;;;;;;;;;;;;;;4.67;29.56;102198.63;4414373;32;34177;-82
2022/03/20 01:32:42;;;;;;;;;;;;;;;4.69;29.38;102199.41;4407919;32;33614;-82
2022/03/20 01:35:10;;;;;;;;;;;;;;;4.77;29.34;102204.44;4406959;32;36205;-80
2022/03/20 01:37:41;;;;;;;;;;;;;;;4.78;29.80;102207.03;4407805;32;34185;-81
2022/03/20 01:40:08;;;;;;;;;;;;;;;4.97;29.01;102208.16;4425064;32;32772;-80
2022/03/20 01:42:38;;;;;;;;;;;;;;;4.56;30.31;102208.63;4406353;32;34677;-80
2022/03/20 01:45:16;;;;;;;;;;;;;;;4.53;29.90;102218.41;4414417;32;35491;-82
2022/03/20 01:47:47;;;;;;;;;;;;;;;4.48;30.19;102220.31;4413948;32;34813;-80
2022/03/20 01:50:22;;;;;;;;;;;;;;;4.46;30.55;102211.59;4422801;32;33120;-82
2022/03/20 01:52:50;;;;;;;;;;;;;;;4.35;30.65;102221.62;4416687;32;33689;-81
2022/03/20 01:55:18;;;;;;;;;;;;;;;4.04;31.11;102218.16;4416967;32;34980;-80
2022/03/20 01:57:46;;;;;;;;;;;;;;;3.81;31.36;102217.97;4401781;32;34418;-80
2022/03/20 02:00:14;;;;;;;;;;;;;;;3.83;31.71;102227.56;4402544;32;31850;-81
2022/03/20 02:02:42;;;;;;;;;;;;;;;3.68;32.07;102230.59;4423114;32;34026;-81
2022/03/20 02:05:11;;;;;;;;;;;;;;;3.74;31.89;102230.44;4407210;32;34533;-80
2022/03/20 02:07:40;;;;;;;;;;;;;;;3.67;32.29;102231.50;4400728;32;33325;-81
2022/03/20 02:10:08;;;;;;;;;;;;;;;3.70;32.17;102234.03;4418010;32;33244;-81
2022/03/20 02:12:36;;;;;;;;;;;;;;;3.60;32.43;102232.56;4403137;32;33156;-81
2022/03/20 02:15:04;;;;;;;;;;;;;;;3.48;33.16;102235.53;4425297;32;34037;-81
2022/03/20 02:17:31;;;;;;;;;;;;;;;3.66;32.35;102240.31;4420225;32;34236;-81
2022/03/20 02:20:04;;;;;;;;;;;;;;;3.55;32.69;102239.75;4423657;32;32955;-81
2022/03/20 02:22:32;;;;;;;;;;;;;;;3.34;33.08;102244.69;4423914;32;33490;-81
2022/03/20 02:25:04;;;;;;;;;;;;;;;3.39;33.30;102245.44;4400913;32;34406;-81
2022/03/20 02:27:32;;;;;;;;;;;;;;;3.39;33.32;102238.41;4420421;32;34403;-81
2022/03/20 02:30:00;;;;;;;;;;;;;;;3.37;33.31;102240.22;4408799;32;33216;-81
2022/03/20 02:32:28;;;;;;;;;;;;;;;3.33;33.79;102248.25;4403121;32;35579;-82
2022/03/20 02:34:56;;;;;;;;;;;;;;;3.43;33.28;102240.03;4416807;32;33864;-81
2022/03/20 02:37:24;;;;;;;;;;;;;;;3.44;33.17;102233.03;4413737;32;35447;-80
2022/03/20 02:39:54;;;;;;;;;;;;;;;3.25;33.55;102243.19;4418326;32;32838;-80
2022/03/20 02:42:22;;;;;;;;;;;;;;;3.22;33.80;102240.63;4424048;32;33413;-80
2022/03/20 02:44:56;;;;;;;;;;;;;;;2.95;34.26;102243.09;4425797;32;35802;-80
2022/03/20 02:47:24;;;;;;;;;;;;;;;3.37;33.61;102239.34;4412491;32;32869;-80
2022/03/20 02:49:59;;;;;;;;;;;;;;;3.25;33.88;102248.44;4424701;32;34964;-81
2022/03/20 02:52:28;;;;;;;;;;;;;;;3.26;33.88;102247.53;4408169;32;34219;-81
2022/03/20 02:54:58;;;;;;;;;;;;;;;3.44;33.61;102256.72;4417740;32;35545;-81
2022/03/20 02:57:25;;;;;;;;;;;;;;;3.44;33.58;102257.59;4413125;32;34065;-81
2022/03/20 02:59:52;;;;;;;;;;;;;;;3.31;33.91;102258.78;4415605;32;33990;-81
2022/03/20 03:02:20;;;;;;;;;;;;;;;3.34;33.90;102263.97;4420522;32;33953;-80
2022/03/20 03:04:48;;;;;;;;;;;;;;;3.32;34.03;102272.81;4427703;32;35190;-80
2022/03/20 03:07:15;;;;;;;;;;;;;;;2.96;34.72;102273.72;4403072;32;34319;-81
2022/03/20 03:12:29;;;;;;;;;;;;;;;2.94;34.84;102273.75;4409407;32;32890;-80
2022/03/20 03:17:42;;;;;;;;;;;;;;;2.58;35.89;102292.16;4422587;32;35377;-80
2022/03/20 03:20:10;;;;;;;;;;;;;;;2.77;35.64;102286.44;4423332;32;32596;-81
2022/03/20 03:22:38;;;;;;;;;;;;;;;2.92;35.13;102288.72;4417203;32;33815;-80
2022/03/20 03:25:06;;;;;;;;;;;;;;;2.67;35.76;102289.31;4413264;32;36017;-80
2022/03/20 03:27:33;;;;;;;;;;;;;;;2.49;36.10;102300.22;4413689;32;33952;-80
2022/03/20 03:30:01;;;;;;;;;;;;;;;2.44;36.44;102301.22;4417390;32;33658;-81
2022/03/20 03:32:28;;;;;;;;;;;;;;;2.32;36.84;102304.97;4415728;32;34802;-80
2022/03/20 03:37:43;;;;;;;;;;;;;;;1.98;37.66;102316.19;4420855;32;34930;-80
2022/03/20 03:40:11;;;;;;;;;;;;;;;2.03;37.73;102320.47;4413422;32;33600;-81
2022/03/20 03:42:39;;;;;;;;;;;;;;;2.08;37.62;102315.13;4415965;32;33662;-80
2022/03/20 03:45:08;;;;;;;;;;;;;;;1.81;38.10;102323.50;4413495;32;35596;-80
2022/03/20 03:47:36;;;;;;;;;;;;;;;1.97;38.03;102324.97;4407647;32;34687;-80
2022/03/20 03:50:04;;;;;;;;;;;;;;;1.88;38.16;102327.75;4414396;32;33250;-80
2022/03/20 03:52:32;;;;;;;;;;;;;;;1.70;38.50;102334.19;4427441;32;33104;-80
2022/03/20 03:54:59;;;;;;;;;;;;;;;1.71;38.53;102341.16;4422194;32;35026;-80
2022/03/20 03:57:28;;;;;;;;;;;;;;;1.87;38.39;102339.16;4413106;32;35115;-80
2022/03/20 03:59:55;;;;;;;;;;;;;;;1.91;38.31;102343.44;4398639;32;33655;-80
2022/03/20 04:02:23;;;;;;;;;;;;;;;1.95;38.46;102340.72;4412958;32;34725;-80
2022/03/20 04:04:51;;;;;;;;;;;;;;;1.96;38.33;102344.25;4417890;32;35296;-81
2022/03/20 04:07:18;;;;;;;;;;;;;;;1.88;38.60;102354.00;4419441;32;35075;-80
2022/03/20 04:09:45;;;;;;;;;;;;;;;1.97;38.54;102359.94;4393077;32;33219;-80
2022/03/20 04:12:13;;;;;;;;;;;;;;;1.91;38.79;102356.56;4407304;32;33408;-81
2022/03/20 04:14:42;;;;;;;;;;;;;;;2.23;37.97;102351.56;4423760;32;34611;-81
2022/03/20 04:17:12;;;;;;;;;;;;;;;2.11;38.04;102363.19;4415219;32;33644;-81
2022/03/20 04:19:41;;;;;;;;;;;;;;;1.93;38.57;102365.28;4417022;32;33303;-80
2022/03/20 04:22:08;;;;;;;;;;;;;;;1.96;38.66;102363.47;4417848;32;33608;-80
2022/03/20 04:24:36;;;;;;;;;;;;;;;1.85;39.01;102365.41;4404690;32;35089;-81
2022/03/20 04:27:05;;;;;;;;;;;;;;;1.89;38.96;102368.87;4401383;32;34977;-80
2022/03/20 04:29:32;;;;;;;;;;;;;;;1.90;38.97;102373.22;4420972;32;32915;-81
2022/03/20 04:31:59;;;;;;;;;;;;;;;1.78;39.42;102374.28;4412752;32;33426;-80
2022/03/20 04:34:27;;;;;;;;;;;;;;;1.86;39.29;102382.91;4399840;32;35292;-80
2022/03/20 04:36:56;;;;;;;;;;;;;;;1.84;39.37;102387.31;4412999;32;34471;-80
2022/03/20 04:39:24;;;;;;;;;;;;;;;1.74;39.66;102383.13;4420496;32;33105;-80
2022/03/20 04:41:52;;;;;;;;;;;;;;;1.58;39.99;102391.25;4402874;32;33795;-80
2022/03/20 04:44:20;;;;;;;;;;;;;;;1.62;39.82;102400.81;4391150;32;34025;-80
2022/03/20 04:46:48;;;;;;;;;;;;;;;1.54;40.28;102397.47;4412665;32;34307;-79
2022/03/20 05:00:34;;;;;;;;;;;;;;;1.85;39.95;102411.78;4365074;32;33420;-80
2022/03/20 05:03:02;;;;;;;;;;;;;;;1.61;40.62;102425.34;4352402;32;34113;-80
2022/03/20 05:05:30;;;;;;;;;;;;;;;1.48;41.00;102422.03;4353314;32;34759;-79
2022/03/20 05:07:58;;;;;;;;;;;;;;;1.71;40.42;102421.66;4340784;32;34643;-80
2022/03/20 05:13:21;;;;;;;;;;;;;;;1.68;40.25;102426.97;4366023;32;34126;-80
2022/03/20 05:15:48;;;;;;;;;;;;;;;1.79;40.34;102425.03;4352604;32;35151;-81
2022/03/20 05:21:23;;;;;;;;;;;;;;;1.80;40.39;102424.13;4352950;32;33523;-79
2022/03/20 05:23:56;;;;;;;;;;;;;;;1.64;40.89;102433.16;4351206;32;34183;-78
2022/03/20 05:26:24;;;;;;;;;;;;;;;1.76;40.65;102436.44;4352468;32;34941;-78
2022/03/20 05:28:51;;;;;;;;;;;;;;;1.78;40.49;102445.16;4340745;32;35817;-79
2022/03/20 05:31:20;;;;;;;;;;;;;;;1.81;40.71;102446.84;4353407;32;33716;-79
2022/03/20 05:33:48;;;;;;;;;;;;;;;1.78;40.69;102455.66;4353082;32;34549;-79
2022/03/20 05:36:15;;;;;;;;;;;;;;;1.92;40.63;102455.41;4363488;32;33320;-79
2022/03/20 05:38:43;;;;;;;;;;;;;;;1.72;40.90;102453.13;4386215;32;34430;-79
2022/03/20 05:44:05;;;;;;;;;;;;;;;2.31;39.67;102452.06;4382890;32;34617;-79
2022/03/20 05:46:32;;;;;;;;;;;;;;;2.56;39.30;102466.50;4386245;32;35332;-79
2022/03/20 05:49:00;;;;;;;;;;;;;;;2.56;39.47;102463.87;4373849;32;34149;-78
2022/03/20 05:51:28;;;;;;;;;;;;;;;2.93;38.59;102469.22;4386373;32;34413;-79
2022/03/20 05:53:55;;;;;;;;;;;;;;;2.87;38.70;102468.47;4386040;32;34976;-79
2022/03/20 05:59:09;;;;;;;;;;;;;;;2.91;38.75;102467.50;4400296;32;35341;-79
2022/03/20 06:01:36;;;;;;;;;;;;;;;3.01;38.37;102466.41;4386133;32;34290;-78
2022/03/20 06:04:05;;;;;;;;;;;;;;;2.97;39.04;102465.66;4373808;32;33733;-79
2022/03/20 06:06:35;;;;;;;;;;;;;;;3.20;38.27;102466.00;4386032;32;35991;-79
2022/03/20 06:09:03;;;;;;;;;;;;;;;3.56;37.49;102461.66;4386151;32;34801;-78
2022/03/20 06:11:34;;;;;;;;;;;;;;;3.45;37.94;102472.44;4386035;32;34278;-78
2022/03/20 06:14:02;;;;;;;;;;;;;;;3.68;37.25;102479.81;4386227;32;34128;-78
2022/03/20 06:16:30;;;;;;;;;;;;;;;3.44;38.09;102489.16;4399868;32;36722;-78
2022/03/20 06:18:58;;;;;;;;;;;;;;;3.32;38.40;102488.53;4385804;32;33923;-78
2022/03/20 06:21:26;;;;;;;;;;;;;;;3.44;38.15;102494.41;4383181;32;34459;-78
2022/03/20 06:23:54;;;;;;;;;;;;;;;3.57;37.86;102501.13;4383396;32;34004;-78
2022/03/20 06:26:22;;;;;;;;;;;;;;;3.62;38.21;102498.38;4370786;32;34858;-78
2022/03/20 06:28:50;;;;;;;;;;;;;;;3.61;38.29;102502.75;4383317;32;34386;-78
2022/03/20 06:31:19;;;;;;;;;;;;;;;4.06;37.21;102500.81;4369724;32;33751;-78
2022/03/20 06:33:57;;;;;;;;;;;;;;;3.82;37.98;102494.37;4383709;32;34260;-78
2022/03/20 06:36:25;;;;;;;;;;;;;;;4.12;37.10;102504.16;4384538;32;35396;-79
2022/03/20 06:38:52;;;;;;;;;;;;;;;4.34;36.82;102499.22;4383012;32;34395;-79
2022/03/20 06:41:20;;;;;;;;;;;;;;;4.47;36.48;102503.25;4383382;32;31693;-78
2022/03/20 06:43:47;;;;;;;;;;;;;;;4.36;36.21;102511.41;4382725;32;33706;-78
2022/03/20 06:46:16;;;;;;;;;;;;;;;4.42;35.46;102516.53;4382569;32;35361;-78
2022/03/20 06:48:52;;;;;;;;;;;;;;;4.65;35.22;102516.81;4383010;32;34575;-79
2022/03/20 06:51:22;;;;;;;;;;;;;;;4.68;34.95;102518.47;4383248;32;34091;-79
2022/03/20 06:53:53;;;;;;;;;;;;;;;4.91;34.47;102513.44;4382981;32;32502;-79
2022/03/20 06:56:21;;;;;;;;;;;;;;;4.59;35.45;102524.00;4383463;32;34996;-79
2022/03/20 06:58:49;;;;;;;;;;;;;;;4.82;34.72;102526.91;4383460;32;34764;-79
2022/03/20 07:01:17;;;;;;;;;;;;;;;4.67;34.94;102529.94;4371082;32;33462;-78
2022/03/20 07:03:45;;;;;;;;;;;;;;;4.71;34.82;102529.81;4383510;32;35004;-79
2022/03/20 07:06:12;;;;;;;;;;;;;;;4.72;35.10;102526.25;4383135;32;34638;-79
2022/03/20 07:08:40;;;;;;;;;;;;;;;5.04;34.56;102526.25;4382563;32;34839;-79
2022/03/20 07:11:08;;;;;;;;;;;;;;;5.26;34.25;102529.16;4384386;32;33967;-79
2022/03/20 07:13:53;;;;;;;;;;;;;;;5.11;34.45;102533.09;4382441;32;33964;-79
2022/03/20 07:16:21;;;;;;;;;;;;;;;5.71;33.11;102539.19;4383355;32;35805;-79
2022/03/20 07:18:49;;;;;;;;;;;;;;;5.70;32.94;102545.37;4383086;32;34811;-79
2022/03/20 07:21:18;;;;;;;;;;;;;;;5.46;33.54;102547.91;4382937;32;33545;-79
2022/03/20 07:23:46;;;;;;;;;;;;;;;5.53;33.23;102548.53;4383157;32;34052;-79
2022/03/20 07:31:52;;;;;;;;;;;;;;;5.74;32.63;102555.78;4384125;32;33426;-79
2022/03/20 07:34:21;;;;;;;;;;;;;;;5.83;32.46;102558.19;4370413;32;32714;-79
2022/03/20 07:36:50;;;;;;;;;;;;;;;5.79;32.92;102558.34;4382874;32;35302;-79
2022/03/20 07:39:18;;;;;;;;;;;;;;;6.12;32.11;102555.47;4370784;32;34517;-80
2022/03/20 07:41:46;;;;;;;;;;;;;;;6.36;32.46;102557.31;4382651;32;34524;-79
2022/03/20 07:44:17;;;;;;;;;;;;;;;6.49;31.40;102556.00;4370942;32;34014;-78
2022/03/20 07:46:47;;;;;;;;;;;;;;;6.58;31.37;102560.97;4384149;32;34536;-78
2022/03/20 07:49:15;;;;;;;;;;;;;;;6.73;31.07;102546.34;4383041;32;34540;-77
2022/03/20 07:51:43;;;;;;;;;;;;;;;6.67;30.82;102551.84;4370738;32;33148;-77
2022/03/20 07:54:11;;;;;;;;;;;;;;;6.68;31.42;102554.44;4382767;32;33834;-78
2022/03/20 07:56:38;;;;;;;;;;;;;;;6.87;30.66;102549.34;4382710;32;34919;-79
2022/03/20 07:59:09;;;;;;;;;;;;;;;6.91;30.18;102557.12;4370289;32;34096;-80
2022/03/20 08:01:38;;;;;;;;;;;;;;;6.26;31.33;102557.69;4382341;32;34489;-80
2022/03/20 08:04:08;;;;;;;;;;;;;;;6.07;31.41;102557.41;4382822;32;33895;-78
2022/03/20 08:06:37;;;;;;;;;;;;;;;6.26;31.28;102553.25;4379555;32;35369;-79
2022/03/20 08:09:07;;;;;;;;;;;;;;;6.87;30.62;102559.94;4382477;32;34817;-81
2022/03/20 08:11:36;;;;;;;;;;;;;;;7.08;30.37;102554.75;4382868;32;32577;-80
2022/03/20 08:14:08;;;;;;;;;;;;;;;6.87;30.77;102563.47;4382912;32;34923;-78
2022/03/20 08:16:38;;;;;;;;;;;;;;;7.25;30.16;102562.06;4382699;32;33723;-79
2022/03/20 08:19:09;;;;;;;;;;;;;;;7.44;29.70;102558.69;4384131;32;34011;-80
2022/03/20 08:21:41;;;;;;;;;;;;;;;7.17;30.05;102551.78;4382712;32;31593;-80
2022/03/20 08:24:12;;;;;;;;;;;;;;;7.26;30.10;102551.44;4383076;32;34801;-79
2022/03/20 08:26:42;;;;;;;;;;;;;;;7.25;29.97;102546.19;4382144;32;35783;-78
2022/03/20 08:29:13;;;;;;;;;;;;;;;7.58;29.78;102553.75;4370066;32;35731;-79
2022/03/20 08:34:31;;;;;;;;;;;;;;;7.58;30.93;102550.22;4391477;27;34062;-83
2022/03/20 08:36:59;;;;;;;;;;;;;;;8.11;29.52;102539.22;4348385;32;34043;-83
2022/03/20 08:39:26;;;;;;;;;;;;;;;8.36;28.73;102542.63;4360831;32;35038;-84
2022/03/20 08:41:54;;;;;;;;;;;;;;;8.36;28.50;102541.75;4390715;32;34278;-85
2022/03/20 08:44:26;;;;;;;;;;;;;;;8.68;27.73;102536.81;4382410;32;33847;-85
2022/03/20 08:46:53;;;;;;;;;;;;;;;8.36;27.74;102545.28;4380013;32;36500;-85
2022/03/20 08:49:21;;;;;;;;;;;;;;;8.49;27.73;102535.88;4390428;32;34784;-86
2022/03/20 08:51:48;;;;;;;;;;;;;;;8.62;27.37;102537.94;4367273;32;33801;-83
2022/03/20 08:54:17;;;;;;;;;;;;;;;7.81;29.01;102542.25;4376209;32;33712;-85
2022/03/20 08:56:48;;;;;;;;;;;;;;;8.71;28.39;102536.69;4390324;32;35605;-86
2022/03/20 08:59:15;;;;;;;;;;;;;;;8.81;27.00;102538.00;4372680;32;34393;-86
2022/03/20 09:01:43;;;;;;;;;;;;;;;8.87;26.58;102529.75;4388678;32;32851;-85
2022/03/20 09:04:11;;;;;;;;;;;;;;;8.52;27.42;102541.06;4397176;32;33651;-85
2022/03/20 09:06:43;;;;;;;;;;;;;;;8.55;26.65;102543.56;4391834;32;35815;-84
2022/03/20 09:09:13;;;;;;;;;;;;;;;8.50;26.93;102538.47;4393527;32;35461;-85
2022/03/20 09:11:41;;;;;;;;;;;;;;;8.62;26.42;102540.59;4371935;32;33333;-85
2022/03/20 09:14:08;;;;;;;;;;;;;;;8.15;27.39;102538.19;4374927;32;34009;-86
2022/03/20 09:19:22;;;;;;;;;;;;;;;8.57;28.42;102537.28;4368410;32;35001;-84
2022/03/20 09:21:50;;;;;;;;;;;;;;;8.42;27.54;102530.91;4387109;32;33066;-85
2022/03/20 09:24:18;;;;;;;;;;;;;;;9.06;26.56;102520.03;4382289;32;34372;-85
2022/03/20 09:26:46;;;;;;;;;;;;;;;8.88;26.30;102528.88;4381756;32;34861;-85
2022/03/20 09:29:16;;;;;;;;;;;;;;;9.04;28.13;102520.12;4378168;32;34162;-84
2022/03/20 09:31:43;;;;;;;;;;;;;;;9.06;26.51;102512.06;4380181;32;31178;-84
2022/03/20 09:34:10;;;;;;;;;;;;;;;9.22;26.19;102514.00;4372879;32;34135;-83
2022/03/20 09:36:38;;;;;;;;;;;;;;;9.24;26.53;102511.25;4371710;32;34210;-84
2022/03/20 09:39:05;;;;;;;;;;;;;;;9.40;26.62;102512.28;4371661;32;35253;-88
2022/03/20 09:41:33;;;;;;;;;;;;;;;9.46;26.09;102504.03;4365081;32;33434;-86
2022/03/20 09:44:05;;;;;;;;;;;;;;;9.49;25.54;102506.53;4370743;32;34960;-84
2022/03/20 09:46:33;;;;;;;;;;;;;;;9.44;26.18;102506.75;4356702;32;34584;-85
2022/03/20 09:49:02;;;;;;;;;;;;;;;10.00;25.51;102514.69;4369449;32;34095;-90
2022/03/20 09:51:29;;;;;;;;;;;;;;;10.03;24.71;102511.91;4369348;32;32607;-85
2022/03/20 09:53:57;;;;;;;;;;;;;;;10.01;24.82;102519.91;4369414;32;34662;-84
2022/03/20 09:56:24;;;;;;;;;;;;;;;9.77;25.00;102514.91;4383463;32;35219;-83
2022/03/20 09:58:51;;;;;;;;;;;;;;;9.53;25.07;102519.59;4383294;32;33479;-86
2022/03/20 10:01:19;;;;;;;;;;;;;;;9.66;24.71;102514.56;4383006;32;34272;-84
2022/03/20 10:03:47;;;;;;;;;;;;;;;10.26;24.00;102504.50;4371243;32;33669;-86
2022/03/20 10:06:17;;;;;;;;;;;;;;;10.30;23.70;102494.56;4384424;32;35551;-85
2022/03/20 10:09:00;;;;;;;;;;;;;;;9.74;24.93;102499.12;4371451;32;34472;-87
2022/03/20 10:11:29;;;;;;;;;;;;;;;10.42;23.79;102497.47;4373693;32;34061;-85
2022/03/20 10:14:16;;;;;;;;;;;;;;;10.40;23.79;102480.69;4386643;32;32859;-86
2022/03/20 10:16:44;;;;;;;;;;;;;;;9.80;24.25;102488.16;4371767;32;35559;-84
2022/03/20 10:19:25;;;;;;;;;;;;;;;9.63;25.32;102493.47;4371524;32;33574;-91
2022/03/20 10:21:57;;;;;;;;;;;;;;;9.86;25.22;102493.19;4384912;32;33393;-88
2022/03/20 10:24:25;;;;;;;;;;;;;;;10.32;24.63;102492.69;4370383;32;33622;-85
2022/03/20 10:27:02;;;;;;;;;;;;;;;10.59;24.49;102489.44;4383047;32;34631;-87
2022/03/20 10:29:33;;;;;;;;;;;;;;;10.53;23.47;102488.91;4383326;32;34710;-86
2022/03/20 10:32:10;;;;;;;;;;;;;;;10.66;23.79;102480.22;4356860;32;32424;-88
2022/03/20 10:34:53;;;;;;;;;;;;;;;10.69;24.24;102482.75;4383419;32;34174;-88
2022/03/20 10:37:21;;;;;;;;;;;;;;;10.33;24.49;102487.28;4381882;32;34869;-86
2022/03/20 10:39:54;;;;;;;;;;;;;;;10.55;24.75;102476.38;4383389;32;35400;-88
2022/03/20 10:42:21;;;;;;;;;;;;;;;10.77;23.55;102480.50;4369440;32;33544;-91
2022/03/20 10:44:48;;;;;;;;;;;;;;;10.49;23.98;102474.06;4358117;32;33647;-91
2022/03/20 10:47:20;;;;;;;;;;;;;;;10.17;24.11;102478.34;4357653;32;34803;-88
2022/03/20 10:50:00;;;;;;;;;;;;;;;10.07;24.13;102481.53;4370088;32;34146;-89
2022/03/20 10:52:29;;;;;;;;;;;;;;;9.96;24.66;102484.72;4369521;32;34352;-91
2022/03/20 10:54:57;;;;;;;;;;;;;;;9.59;24.42;102483.91;4357209;32;32799;-89
2022/03/20 10:57:32;;;;;;;;;;;;;;;10.53;24.61;102465.84;4382726;32;34986;-91
2022/03/20 11:00:01;;;;;;;;;;;;;;;10.60;23.96;102469.03;4382139;32;31675;-92
2022/03/20 11:02:28;;;;;;;;;;;;;;;10.88;23.30;102462.19;4369301;32;33150;-86
2022/03/20 11:04:56;;;;;;;;;;;;;;;11.16;23.74;102456.22;4356267;32;33127;-87
2022/03/20 11:07:23;;;;;;;;;;;;;;;10.58;23.41;102450.47;4384107;32;35848;-94
2022/03/20 11:11:10;;;;;;;2.45;2.25;;;;;;;10.69;23.18;102445.47;4447493;32;222269;-88
2022/03/20 11:13:46;;;;;;;2.65;2.45;;;;;;;10.53;23.24;102455.19;4441838;32;32540;-93
2022/03/20 11:16:15;;;;;;;2.70;2.50;;;;;;;10.40;24.41;102446.09;4439223;32;33347;-92
2022/03/20 11:18:45;;;;;;;2.78;2.58;;;;;;;10.83;22.79;102440.25;4427475;32;35816;-93
2022/03/20 11:21:12;;;;;;;2.55;2.37;;;;;;;11.22;23.57;102437.25;4428627;32;33789;-91
2022/03/20 11:23:44;;;;;;;3.83;2.55;;;;;;;11.22;23.80;102435.41;4442309;32;33292;-87
2022/03/20 11:26:12;;;;;;;5.37;2.58;;;;;;;11.36;23.91;102432.84;4426168;32;32983;-92
2022/03/20 11:28:45;;;;;;;4.80;3.40;;;;;;;11.60;23.54;102426.16;4425725;32;36940;-91
2022/03/20 11:31:13;;;;;;;1.80;1.70;;;;;;;11.47;22.38;102431.28;4421330;32;33246;-91
2022/03/20 11:33:41;;;;;;;;;;;;;;;11.27;22.53;102425.38;4420495;32;32397;-90
2022/03/20 11:36:09;;;;;;;3.65;3.33;;;;;;;11.01;23.01;102407.28;4420050;32;33526;-88
2022/03/20 11:38:37;;;;;;;3.47;3.28;;;;;;;10.81;23.15;102412.84;4433605;32;35252;-89
2022/03/20 11:41:17;;;;;;;4.22;3.83;;;;;;;11.15;23.04;102402.06;4440079;32;34930;-90
2022/03/20 11:44:06;;;;;;;3.55;3.25;;;;;;;11.67;22.81;102390.19;4455487;32;33699;-88
2022/03/20 11:46:34;;;;;;;2.75;2.55;;;;;;;11.48;21.57;102392.19;4457377;32;33599;-91
2022/03/20 11:49:14;;;;;;;3.62;3.20;;;;;;;11.61;21.57;102398.53;4456582;32;35125;-90
2022/03/20 11:51:54;;;;;;;4.32;4.00;;;;;;;11.64;21.74;102379.72;4455784;32;34260;-93
2022/03/20 11:54:39;;;;;;;3.12;2.92;;;;;;;11.72;21.47;102380.16;4443234;32;33288;-88
2022/03/20 11:57:42;;;;;;;3.33;2.22;;;;;;;11.91;21.11;102373.63;4457107;32;33444;-90
2022/03/20 12:00:14;;;;;;;3.03;2.15;;;;;;;11.63;21.55;102383.34;4454882;32;35635;-89
2022/03/20 12:03:13;;;;;;;4.20;2.72;;;;;;;11.32;21.22;102378.87;4419799;32;32952;-91
2022/03/20 12:05:41;;;;;;;2.55;1.75;;;;;;;11.56;22.08;102366.78;4413455;32;32501;-89
2022/03/20 12:08:22;;;;;;;2.90;2.70;;;;;;;11.85;21.19;102370.47;4441164;32;34925;-89
2022/03/20 12:11:18;;;;;;;1.95;1.85;;;;;;;12.17;20.96;102359.59;4441483;32;34265;-89
2022/03/20 12:13:52;;;;;;;4.93;2.70;;;;;;;12.21;21.87;102368.28;4443360;32;33657;-91
2022/03/20 12:16:45;;;;;;;2.87;2.65;;;;;;;12.08;21.12;102367.28;4441262;32;32301;-90
2022/03/20 12:29:27;;;;;;;2.75;2.60;;;;;;;12.54;20.11;102358.19;4443178;32;33676;-90
2022/03/20 13:09:00;;;;;;;3.75;2.80;;;;;;;11.46;20.33;102322.09;4373763;32;32429;-93
2022/03/20 13:38:15;;;;;;;2.60;2.17;;;;;;;11.93;19.40;102304.19;4365145;32;33940;-93
2022/03/20 13:41:26;;;;;;;2.60;2.35;;;;;;;12.18;19.48;102291.91;4336953;32;33324;-93
2022/03/20 13:58:15;;;;;;;2.58;2.37;;;;;;;13.15;18.10;102268.75;4336220;33;32806;-94
2022/03/20 14:05:01;;;;;;;2.92;2.15;;;;;;;13.02;18.01;102280.34;4309091;33;33706;-92
2022/03/20 14:11:15;;;;;;;1.60;1.50;;;;;;;13.96;17.32;102264.97;4303906;33;34251;-94
2022/03/20 14:20:59;;;;;;;2.90;2.70;;;;;;;13.98;17.16;102263.87;4354976;32;34318;-95
2022/03/20 14:24:42;;;;;;;1.52;1.42;;;;;;;14.57;17.28;102258.72;4350794;32;33108;-90
2022/03/20 14:47:49;;;;;;;3.00;2.70;;;;;;;13.75;17.92;102250.37;4374490;32;35306;-89
2022/03/20 15:29:13;;;;;;;2.05;1.95;;;;;;;14.42;16.37;102213.44;4335534;32;33141;-90
2022/03/20 15:51:13;;;;;;;;;;;;;;;;;;;;;
2022/03/20 16:06:23;;;;;;;2.30;2.10;;;;;;;11.63;18.46;102208.22;4386269;32;32377;-87
2022/03/20 16:09:49;;;;;;;11.50;3.90;;;;;;;11.32;19.32;102211.94;4368803;32;32725;-90
2022/03/20 16:44:47;;;;;;;6.72;3.85;;;;;;;11.49;20.32;102204.62;4399380;32;34615;-86
2022/03/20 17:19:05;;;;;;;;;;;;;;;10.47;23.43;102215.12;4421984;32;34361;-85
2022/03/20 18:19:43;;;;;;;7.65;4.10;;;;;;;7.52;25.84;102240.53;4373348;32;33883;-85
2022/03/20 18:24:58;;;;;;;3.42;3.15;;;;;;;7.12;26.46;102244.03;4374484;26;34681;-80
2022/03/20 18:27:27;;;;;;;7.68;3.45;;;;;;;7.14;26.35;102247.47;4428533;32;33374;-80
2022/03/20 18:29:55;;;;;;;2.78;2.20;;;;;;;7.00;26.47;102249.81;4402217;32;33042;-79
2022/03/20 18:32:23;;;;;;;5.05;3.53;;;;;;;6.95;26.65;102249.16;4414081;32;35583;-80
2022/03/20 18:34:52;;;;;;;5.55;4.97;;;;;;;6.84;27.06;102245.22;4414416;32;33613;-80
2022/03/20 18:37:20;;;;;;;3.90;3.53;;;;;;;6.86;27.12;102246.87;4409393;32;33611;-80
2022/03/20 18:39:47;;;;;;;4.05;3.53;;;;;;;6.70;27.33;102255.50;4413081;32;33458;-80
2022/03/20 18:42:15;;;;;;;8.43;3.92;;;;;;;6.60;27.72;102248.84;4414044;32;34862;-80
2022/03/20 18:44:43;;;;;;;6.40;4.55;;;;;;;6.52;27.86;102250.91;4414546;32;35154;-80
2022/03/20 18:47:11;;;;;;;11.43;4.93;;;;;;;6.30;27.75;102248.22;4414561;32;34561;-80
2022/03/20 18:49:40;;;;;;;;;;;;;;;6.30;27.54;102242.06;4428624;32;34009;-80
2022/03/20 18:52:13;;;;;;;10.23;4.03;;;;;;;6.23;27.74;102248.53;4428982;32;35267;-80